createdAt,value
2022-11-14T00:00:39.363Z,7.50
2022-11-14T00:02:00.168Z,8.10
2022-11-14T00:03:20.993Z,8.40
2022-11-14T00:04:43.710Z,7.00
2022-11-14T00:06:08.013Z,8.70
2022-11-14T00:07:33.301Z,7.60
2022-11-14T00:08:53.784Z,6.20
2022-11-14T00:10:16.185Z,8.20
2022-11-14T00:11:36.386Z,5.60
2022-11-14T00:12:56.955Z,6.40
2022-11-14T00:14:17.503Z,4.90
2022-11-14T00:15:38.180Z,7.10
2022-11-14T00:16:58.619Z,5.00
2022-11-14T00:18:19.688Z,4.10
2022-11-14T00:19:40.346Z,4.60
2022-11-14T00:21:00.901Z,5.10
2022-11-14T00:22:21.391Z,4.50
2022-11-14T00:23:41.774Z,4.60
2022-11-14T00:25:03.267Z,5.90
2022-11-14T00:26:24.019Z,5.20
2022-11-14T00:27:45.094Z,5.70
2022-11-14T00:29:05.424Z,5.30
2022-11-14T00:30:27.246Z,7.70
2022-11-14T00:31:48.010Z,7.40
2022-11-14T00:33:09.396Z,6.80
2022-11-14T00:34:29.921Z,7.70
2022-11-14T00:35:54.907Z,7.30
2022-11-14T00:37:16.480Z,7.40
2022-11-14T00:38:37.584Z,11.40
2022-11-14T00:39:58.895Z,5.80
2022-11-14T00:41:19.451Z,8.70
2022-11-14T00:42:39.922Z,5.40
2022-11-14T00:44:00.723Z,8.30
2022-11-14T00:45:21.839Z,5.80
2022-11-14T00:46:42.188Z,6.10
2022-11-14T00:48:02.823Z,6.30
2022-11-14T00:49:23.905Z,9.40
2022-11-14T00:50:44.451Z,6.30
2022-11-14T00:52:04.900Z,11.00
2022-11-14T00:53:25.217Z,10.70
2022-11-14T00:54:45.767Z,8.30
2022-11-14T00:56:07.713Z,5.80
2022-11-14T00:57:28.179Z,7.30
2022-11-14T00:58:49.249Z,7.20
2022-11-14T01:00:12.585Z,9.30
2022-11-14T01:01:33.251Z,11.40
2022-11-14T01:02:54.041Z,7.30
2022-11-14T01:04:15.100Z,7.00
2022-11-14T01:05:41.939Z,6.60
2022-11-14T01:07:02.067Z,6.40
2022-11-14T01:08:22.518Z,10.20
2022-11-14T01:09:43.083Z,4.60
2022-11-14T01:11:07.091Z,6.00
2022-11-14T01:12:27.310Z,6.40
2022-11-14T01:13:48.500Z,5.60
2022-11-14T01:15:10.099Z,7.80
2022-11-14T01:16:30.391Z,4.90
2022-11-14T01:17:50.778Z,3.70
2022-11-14T01:19:11.152Z,9.60
2022-11-14T01:20:32.437Z,8.70
2022-11-14T01:21:52.891Z,10.40
2022-11-14T01:23:15.643Z,12.10
2022-11-14T01:24:36.047Z,10.70
2022-11-14T01:26:03.107Z,6.90
2022-11-14T01:27:24.830Z,5.80
2022-11-14T01:28:45.557Z,4.90
2022-11-14T01:30:07.768Z,7.30
2022-11-14T01:31:27.989Z,5.70
2022-11-14T01:32:48.291Z,7.00
2022-11-14T01:34:09.194Z,8.70
2022-11-14T01:35:30.615Z,6.00
2022-11-14T01:36:52.283Z,7.20
2022-11-14T01:38:14.454Z,7.70
2022-11-14T01:39:34.683Z,9.10
2022-11-14T01:40:55.273Z,11.30
2022-11-14T01:42:17.601Z,11.20
2022-11-14T01:43:40.021Z,11.00
2022-11-14T01:45:00.514Z,6.30
2022-11-14T01:46:27.742Z,8.50
2022-11-14T01:47:48.732Z,5.10
2022-11-14T01:49:18.775Z,10.20
2022-11-14T01:50:39.357Z,8.70
2022-11-14T01:52:03.135Z,8.60
2022-11-14T01:53:24.839Z,10.80
2022-11-14T01:54:49.108Z,8.30
2022-11-14T01:56:13.865Z,9.80
2022-11-14T01:57:38.117Z,8.90
2022-11-14T01:59:02.049Z,8.40
2022-11-14T02:00:22.782Z,9.60
2022-11-14T02:01:48.894Z,9.50
2022-11-14T02:03:13.799Z,6.70
2022-11-14T02:04:38.133Z,8.00
2022-11-14T02:06:00.714Z,12.30
2022-11-14T02:07:25.135Z,14.40
2022-11-14T02:08:47.671Z,13.10
2022-11-14T02:10:11.878Z,14.00
2022-11-14T02:11:35.924Z,21.30
2022-11-14T02:12:56.856Z,17.60
2022-11-14T02:14:17.518Z,13.60
2022-11-14T02:15:38.650Z,13.70
2022-11-14T02:17:22.796Z,16.70
2022-11-14T02:18:21.547Z,12.40
2022-11-14T02:21:26.798Z,21.40
2022-11-14T02:22:47.298Z,13.40
2022-11-14T02:24:11.542Z,20.50
2022-11-14T02:25:31.804Z,15.90
2022-11-14T02:26:52.565Z,14.20
2022-11-14T02:28:12.996Z,14.80
2022-11-14T02:29:34.626Z,15.60
2022-11-14T02:30:55.844Z,11.20
2022-11-14T02:32:16.407Z,16.70
2022-11-14T02:33:36.893Z,17.00
2022-11-14T02:34:57.612Z,21.60
2022-11-14T02:36:18.306Z,26.00
2022-11-14T02:37:39.136Z,24.60
2022-11-14T02:38:59.611Z,18.90
2022-11-14T02:40:20.284Z,14.60
2022-11-14T02:41:40.944Z,18.40
2022-11-14T02:43:01.426Z,14.60
2022-11-14T02:44:22.004Z,21.50
2022-11-14T02:45:42.800Z,12.60
2022-11-14T02:47:03.396Z,13.50
2022-11-14T02:48:23.874Z,12.00
2022-11-14T02:49:44.360Z,10.90
2022-11-14T02:51:05.375Z,13.40
2022-11-14T02:52:25.763Z,10.50
2022-11-14T02:53:46.250Z,23.50
2022-11-14T02:55:07.526Z,26.70
2022-11-14T02:56:27.830Z,22.20
2022-11-14T02:57:48.331Z,17.40
2022-11-14T02:59:08.863Z,20.30
2022-11-14T03:00:29.276Z,16.10
2022-11-14T03:01:50.002Z,23.50
2022-11-14T03:03:10.607Z,25.80
2022-11-14T03:04:30.937Z,28.40
2022-11-14T03:05:51.422Z,26.10
2022-11-14T03:07:12.021Z,48.40
2022-11-14T03:08:32.874Z,42.80
2022-11-14T03:09:53.389Z,36.80
2022-11-14T03:11:14.030Z,17.20
2022-11-14T03:12:34.108Z,20.20
2022-11-14T03:13:54.910Z,12.40
2022-11-14T03:15:18.054Z,17.60
2022-11-14T03:16:38.787Z,16.00
2022-11-14T03:17:58.963Z,14.60
2022-11-14T03:19:19.535Z,11.00
2022-11-14T03:20:39.955Z,8.20
2022-11-14T03:22:00.598Z,11.50
2022-11-14T03:23:21.022Z,11.60
2022-11-14T03:24:41.758Z,10.90
2022-11-14T03:26:05.232Z,11.30
2022-11-14T03:27:25.798Z,12.90
2022-11-14T03:28:47.781Z,12.10
2022-11-14T03:30:10.190Z,7.70
2022-11-14T03:31:31.078Z,9.30
2022-11-14T03:32:51.424Z,12.30
2022-11-14T03:34:12.018Z,10.50
2022-11-14T03:35:32.414Z,8.70
2022-11-14T03:36:53.409Z,11.50
2022-11-14T03:38:14.013Z,6.60
2022-11-14T03:39:34.755Z,8.00
2022-11-14T03:41:00.222Z,8.20
2022-11-14T03:42:20.757Z,8.50
2022-11-14T03:43:41.165Z,7.00
2022-11-14T03:45:01.930Z,7.30
2022-11-14T03:46:22.710Z,7.90
2022-11-14T03:47:43.244Z,11.60
2022-11-14T03:49:04.298Z,8.60
2022-11-14T03:50:24.873Z,7.90
2022-11-14T03:51:45.840Z,8.10
2022-11-14T03:53:06.220Z,7.30
2022-11-14T03:54:27.458Z,6.60
2022-11-14T03:55:48.310Z,10.60
2022-11-14T06:14:24.278Z,63.30
2022-11-14T06:15:45.081Z,49.60
2022-11-14T06:17:05.825Z,57.60
2022-11-14T06:18:26.534Z,61.60
2022-11-14T06:19:47.299Z,61.10
2022-11-14T06:21:19.480Z,51.90
2022-11-14T06:22:40.409Z,47.20
2022-11-14T06:24:01.031Z,29.80
2022-11-14T06:25:21.813Z,30.80
2022-11-14T06:26:42.465Z,39.50
2022-11-14T06:28:04.246Z,28.30
2022-11-14T06:29:24.618Z,36.90
2022-11-14T06:30:45.035Z,27.60
2022-11-14T06:32:06.146Z,21.20
2022-11-14T06:33:27.588Z,23.60
2022-11-14T06:34:48.396Z,19.30
2022-11-14T06:36:09.634Z,17.70
2022-11-14T06:37:33.554Z,27.70
2022-11-14T06:38:54.056Z,7.70
2022-11-14T06:40:14.755Z,20.20
2022-11-14T06:41:36.085Z,19.10
2022-11-14T06:42:56.948Z,6.70
2022-11-14T06:44:16.929Z,16.60
2022-11-14T06:45:37.920Z,16.60
2022-11-14T06:46:58.095Z,16.70
2022-11-14T06:48:18.555Z,18.50
2022-11-14T06:49:40.696Z,16.20
2022-11-14T06:51:03.145Z,12.70
2022-11-14T06:52:23.737Z,19.00
2022-11-14T06:53:45.344Z,15.50
2022-11-14T06:55:06.550Z,5.50
2022-11-14T06:56:26.803Z,16.00
2022-11-14T06:57:55.016Z,9.60
2022-11-14T06:59:15.335Z,12.90
2022-11-14T07:00:36.369Z,18.20
2022-11-14T07:01:57.219Z,12.50
2022-11-14T07:03:17.823Z,14.90
2022-11-14T07:04:38.162Z,17.40
2022-11-14T07:06:03.342Z,9.00
2022-11-14T07:07:24.165Z,10.80
2022-11-14T07:08:45.140Z,13.50
2022-11-14T07:10:07.523Z,9.70
2022-11-14T07:11:28.532Z,10.00
2022-11-14T07:12:48.906Z,9.30
2022-11-14T07:14:09.852Z,5.20
2022-11-14T07:15:30.180Z,8.50
2022-11-14T07:16:51.250Z,6.90
2022-11-14T07:18:12.467Z,9.90
2022-11-14T07:19:32.915Z,16.50
2022-11-14T07:21:03.031Z,11.10
2022-11-14T07:22:23.365Z,13.40
2022-11-14T07:23:43.869Z,9.50
2022-11-14T07:25:05.179Z,8.80
2022-11-14T07:26:26.654Z,8.20
2022-11-14T07:27:46.808Z,7.10
2022-11-14T07:29:07.531Z,4.80
2022-11-14T07:30:28.073Z,6.20
2022-11-14T07:31:48.526Z,5.70
2022-11-14T07:33:09.591Z,5.70
2022-11-14T07:34:31.230Z,8.40
2022-11-14T07:35:51.706Z,5.10
2022-11-14T07:37:12.308Z,4.90
2022-11-14T07:38:34.046Z,5.30
2022-11-14T07:39:54.777Z,6.00
2022-11-14T07:41:16.489Z,9.90
2022-11-14T07:42:37.415Z,11.10
2022-11-14T07:43:57.748Z,17.60
2022-11-14T07:45:19.209Z,12.20
2022-11-14T07:46:39.914Z,8.20
2022-11-14T07:48:02.136Z,10.80
2022-11-14T07:49:22.519Z,11.80
2022-11-14T07:50:44.298Z,10.00
2022-11-14T07:52:05.849Z,10.90
2022-11-14T07:53:31.047Z,8.90
2022-11-14T07:54:51.464Z,8.70
2022-11-14T07:56:12.277Z,12.10
2022-11-14T07:57:37.065Z,35.30
2022-11-14T07:58:54.630Z,25.10
2022-11-14T08:00:16.868Z,15.30
2022-11-14T08:01:38.577Z,11.50
2022-11-14T08:02:58.886Z,7.50
2022-11-14T08:04:19.370Z,8.80
2022-11-14T08:05:39.640Z,14.30
2022-11-14T08:07:00.157Z,15.60
2022-11-14T08:08:20.643Z,11.00
2022-11-14T08:09:41.224Z,9.50
2022-11-14T08:11:02.132Z,10.40
2022-11-14T08:12:22.738Z,6.90
2022-11-14T08:13:44.395Z,4.50
2022-11-14T08:15:10.127Z,8.50
2022-11-14T08:16:30.562Z,6.00
2022-11-14T08:17:51.208Z,8.20
2022-11-14T08:19:11.643Z,8.40
2022-11-14T08:20:32.965Z,5.00
2022-11-14T08:21:53.967Z,7.10
2022-11-14T08:23:15.971Z,10.00
2022-11-14T08:24:37.054Z,8.90
2022-11-14T08:26:00.616Z,7.80
2022-11-14T08:27:21.713Z,10.80
2022-11-14T08:28:42.642Z,10.50
2022-11-14T08:30:03.799Z,10.40
2022-11-14T08:31:24.715Z,11.30
2022-11-14T08:32:46.358Z,15.90
2022-11-14T08:34:07.154Z,5.10
2022-11-14T08:35:28.116Z,9.20
2022-11-14T08:36:49.034Z,6.70
2022-11-14T08:38:09.195Z,8.30
2022-11-14T08:39:29.909Z,8.30
2022-11-14T08:40:50.439Z,7.70
2022-11-14T08:42:11.061Z,8.20
2022-11-14T08:43:31.936Z,7.20
2022-11-14T08:44:52.858Z,9.00
2022-11-14T08:46:13.775Z,6.10
2022-11-14T08:47:34.104Z,6.50
2022-11-14T08:48:55.884Z,5.20
2022-11-14T08:50:17.367Z,8.00
2022-11-14T08:51:38.250Z,5.70
2022-11-14T08:52:58.786Z,9.80
2022-11-14T08:54:20.290Z,8.20
2022-11-14T08:55:47.142Z,6.70
2022-11-14T08:57:07.837Z,6.20
2022-11-14T08:58:30.750Z,7.80
2022-11-14T08:59:52.373Z,5.80
2022-11-14T09:01:14.204Z,4.80
2022-11-14T09:02:34.790Z,7.20
2022-11-14T09:03:59.609Z,8.60
2022-11-14T09:05:17.803Z,6.80
2022-11-14T09:06:38.355Z,6.50
2022-11-14T09:07:58.703Z,6.70
2022-11-14T09:09:19.242Z,6.20
2022-11-14T09:10:39.840Z,4.30
2022-11-14T09:12:00.379Z,5.00
2022-11-14T09:13:21.439Z,4.60
2022-11-14T09:14:41.902Z,2.90
2022-11-14T09:16:02.809Z,6.10
2022-11-14T09:17:23.857Z,9.60
2022-11-14T09:18:44.016Z,5.80
2022-11-14T09:20:05.928Z,5.80
2022-11-14T09:21:26.364Z,6.00
2022-11-14T09:22:46.838Z,3.90
2022-11-14T09:24:07.804Z,5.90
2022-11-14T09:25:30.064Z,5.00
2022-11-14T09:26:56.306Z,6.10
2022-11-14T09:28:14.394Z,4.00
2022-11-14T09:29:35.150Z,8.00
2022-11-14T09:31:03.373Z,6.90
2022-11-14T09:32:23.512Z,4.80
2022-11-14T09:33:43.970Z,5.10
2022-11-14T09:35:05.317Z,4.10
2022-11-14T09:36:27.039Z,5.20
2022-11-14T09:37:47.155Z,3.70
2022-11-14T09:39:09.604Z,5.30
2022-11-14T09:40:33.862Z,2.80
2022-11-14T09:42:06.903Z,2.60
2022-11-14T09:43:33.905Z,5.20
2022-11-14T09:44:59.905Z,4.70
2022-11-14T09:46:32.744Z,16.60
2022-11-14T09:47:57.312Z,10.30
2022-11-14T14:06:13.398Z,19.00
2022-11-14T14:07:46.354Z,12.60
2022-11-14T14:09:28.758Z,17.30
2022-11-14T14:11:11.186Z,20.60
2022-11-14T14:12:47.234Z,17.50
2022-11-14T14:14:31.043Z,15.10
2022-11-14T14:16:01.975Z,29.80
2022-11-14T14:17:30.670Z,19.70
2022-11-14T14:19:01.035Z,12.90
2022-11-14T14:20:37.466Z,11.60
2022-11-14T14:22:05.758Z,14.40
2022-11-14T14:25:11.020Z,21.30
2022-11-14T14:26:35.218Z,18.20
2022-11-14T14:28:34.276Z,19.30
2022-11-14T14:30:04.740Z,25.30
2022-11-14T14:31:28.523Z,20.50
2022-11-14T14:33:10.479Z,24.90
2022-11-14T14:34:31.453Z,23.00
2022-11-14T14:35:54.047Z,22.90
2022-11-14T14:37:26.583Z,23.40
2022-11-14T14:38:48.285Z,17.50
2022-11-14T14:40:13.026Z,24.60
2022-11-14T14:41:36.889Z,31.60
2022-11-14T14:42:58.085Z,24.30
2022-11-14T14:44:39.488Z,20.40
2022-11-14T14:46:00.930Z,13.90
2022-11-14T14:47:40.804Z,26.50
2022-11-14T14:49:03.723Z,20.70
2022-11-14T14:50:28.130Z,27.70
2022-11-14T14:51:54.431Z,20.50
2022-11-14T14:53:24.775Z,18.80
2022-11-14T14:54:55.335Z,21.00
2022-11-14T14:56:24.087Z,29.70
2022-11-14T14:57:45.447Z,24.30
2022-11-14T14:59:22.464Z,23.70
2022-11-14T15:00:59.537Z,23.10
2022-11-14T15:02:22.053Z,20.80
2022-11-14T15:03:46.517Z,27.10
2022-11-14T15:05:08.322Z,22.60
2022-11-14T15:06:37.381Z,24.20
2022-11-14T15:07:59.979Z,19.50
2022-11-14T15:09:23.575Z,23.20
2022-11-14T15:10:44.970Z,21.70
2022-11-14T15:12:07.193Z,33.30
2022-11-14T15:13:31.043Z,24.60
2022-11-14T15:14:54.682Z,20.70
2022-11-14T15:16:16.951Z,25.20
2022-11-14T15:17:38.078Z,18.70
2022-11-14T15:19:00.121Z,17.00
2022-11-14T15:20:26.672Z,17.90
2022-11-14T15:22:06.027Z,25.20
2022-11-14T15:23:26.315Z,25.50
2022-11-14T15:25:08.132Z,22.90
2022-11-14T15:26:30.309Z,22.50
2022-11-14T15:27:55.125Z,24.20
2022-11-14T15:29:27.311Z,28.30
2022-11-14T15:31:02.412Z,32.70
2022-11-14T15:32:26.128Z,33.00
2022-11-14T15:34:02.483Z,45.70
2022-11-14T15:35:26.913Z,37.40
2022-11-14T15:37:06.239Z,42.90
2022-11-14T15:38:44.574Z,40.60
2022-11-14T15:39:51.692Z,44.20
2022-11-14T15:41:21.117Z,40.20
2022-11-14T15:42:41.942Z,40.80
2022-11-14T15:44:02.862Z,44.10
2022-11-14T15:45:29.559Z,40.50
2022-11-14T15:46:50.261Z,39.90
2022-11-14T15:48:17.306Z,37.70
2022-11-14T15:49:38.022Z,37.30
2022-11-14T15:50:58.337Z,42.80
2022-11-14T15:52:28.794Z,40.60
2022-11-14T15:53:49.551Z,39.50
2022-11-14T15:55:19.216Z,42.80
2022-11-14T15:56:39.369Z,40.40
2022-11-14T15:58:26.558Z,43.80
2022-11-14T15:59:24.948Z,42.00
2022-11-14T16:00:53.740Z,52.40
2022-11-14T16:02:20.432Z,53.00
2022-11-14T16:03:45.573Z,48.00
2022-11-14T16:05:06.902Z,53.40
2022-11-14T16:06:27.883Z,48.20
2022-11-14T16:07:48.532Z,48.60
2022-11-14T16:09:17.944Z,50.80
2022-11-14T16:10:40.374Z,49.00
2022-11-14T16:12:01.703Z,43.70
2022-11-14T16:13:23.076Z,50.30
2022-11-14T16:14:43.901Z,50.60
2022-11-14T16:16:06.121Z,51.10
2022-11-14T16:17:26.840Z,47.90
2022-11-14T16:18:47.333Z,47.80
2022-11-14T16:20:20.815Z,51.90
2022-11-14T16:21:42.043Z,55.00
2022-11-14T16:23:03.524Z,54.50
2022-11-14T16:24:24.702Z,48.30
2022-11-14T16:25:46.953Z,41.20
2022-11-14T16:27:08.552Z,40.40
2022-11-14T16:28:29.375Z,45.50
2022-11-14T16:29:50.858Z,39.80
2022-11-14T16:31:13.433Z,44.30
2022-11-14T16:32:34.727Z,49.80
2022-11-14T16:33:55.703Z,43.90
2022-11-14T16:35:19.404Z,34.20
2022-11-14T16:36:40.437Z,41.20
2022-11-14T16:38:00.882Z,32.30
2022-11-14T16:39:21.651Z,29.50
2022-11-14T16:40:45.992Z,27.30
2022-11-14T16:42:06.303Z,29.80
2022-11-14T16:43:28.487Z,31.30
2022-11-14T16:44:50.949Z,32.70
2022-11-14T16:46:12.261Z,33.50
2022-11-14T16:47:33.028Z,39.50
2022-11-14T16:48:55.066Z,41.80
2022-11-14T16:50:17.772Z,37.80
2022-11-14T16:51:53.208Z,31.80
2022-11-14T16:53:00.109Z,27.80
2022-11-14T16:54:21.374Z,32.10
2022-11-14T16:55:44.654Z,34.60
2022-11-14T16:57:05.622Z,34.80
2022-11-14T16:58:26.107Z,36.40
2022-11-14T16:59:46.565Z,34.00
2022-11-14T17:01:14.347Z,43.60
2022-11-14T17:02:31.593Z,35.30
2022-11-14T17:03:53.048Z,43.40
2022-11-14T17:05:13.648Z,34.30
2022-11-14T17:06:35.236Z,35.30
2022-11-14T17:07:57.071Z,25.10
2022-11-14T17:09:18.378Z,31.00
2022-11-14T17:10:46.812Z,32.80
2022-11-14T17:12:07.629Z,26.80
2022-11-14T17:13:28.930Z,35.00
2022-11-14T17:14:49.541Z,26.70
2022-11-14T17:16:10.414Z,32.90
2022-11-14T17:17:30.871Z,25.00
2022-11-14T17:18:54.798Z,41.00
2022-11-14T17:20:16.119Z,28.40
2022-11-14T17:21:36.430Z,33.20
2022-11-14T17:22:57.867Z,36.10
2022-11-14T17:24:19.300Z,36.10
2022-11-14T17:25:39.799Z,34.40
2022-11-14T17:27:01.601Z,40.40
2022-11-14T17:28:22.137Z,51.60
2022-11-14T17:29:42.663Z,51.90
2022-11-14T17:31:08.440Z,43.70
2022-11-14T17:32:29.603Z,32.90
2022-11-14T17:33:52.582Z,38.40
2022-11-14T17:35:14.214Z,36.20
2022-11-14T17:36:35.818Z,34.00
2022-11-14T17:38:00.060Z,36.10
2022-11-14T17:39:18.304Z,35.90
2022-11-14T17:40:39.883Z,35.10
2022-11-14T17:42:00.406Z,33.00
2022-11-14T17:43:20.943Z,16.00
2022-11-14T17:44:41.818Z,27.50
2022-11-14T17:46:04.239Z,35.30
2022-11-14T17:47:24.472Z,28.50
2022-11-14T17:48:45.070Z,29.90
2022-11-14T17:50:06.273Z,30.60
2022-11-14T17:51:27.672Z,31.40
2022-11-14T17:52:47.796Z,34.00
2022-11-14T17:54:08.105Z,29.30
2022-11-14T17:55:28.545Z,32.10
2022-11-14T17:56:54.588Z,30.70
2022-11-14T17:58:12.972Z,33.20
2022-11-14T17:59:33.468Z,32.80
2022-11-14T18:00:54.237Z,31.70
2022-11-14T18:02:15.472Z,31.60
2022-11-14T18:03:36.867Z,21.40
2022-11-14T18:04:57.946Z,30.50
2022-11-14T18:06:21.108Z,27.30
2022-11-14T18:07:42.525Z,28.80
2022-11-14T18:09:08.080Z,32.90
2022-11-14T18:10:28.483Z,34.40
2022-11-14T18:11:48.728Z,17.50
2022-11-14T18:13:09.741Z,40.90
2022-11-14T18:14:31.300Z,35.60
2022-11-14T18:15:52.494Z,28.00
2022-11-14T18:17:14.138Z,39.00
2022-11-14T18:18:36.212Z,29.90
2022-11-14T18:19:58.188Z,36.80
2022-11-14T18:21:22.198Z,33.80
2022-11-14T18:22:42.457Z,37.90
2022-11-14T18:24:03.776Z,38.70
2022-11-14T18:25:24.952Z,44.00
2022-11-14T18:26:46.421Z,44.60
2022-11-14T18:28:06.710Z,51.91
2022-11-14T18:29:28.443Z,59.60
2022-11-14T18:30:55.818Z,58.40
2022-11-14T18:32:16.272Z,56.20
2022-11-14T18:33:38.559Z,51.90
2022-11-14T18:34:58.919Z,43.20
2022-11-14T18:36:20.088Z,42.30
2022-11-14T18:37:41.565Z,46.60
2022-11-14T18:39:02.016Z,43.30
2022-11-14T18:40:22.307Z,48.70
2022-11-14T18:41:42.624Z,49.70
2022-11-14T18:43:03.065Z,50.10
2022-11-14T18:44:24.813Z,42.40
2022-11-14T18:45:45.253Z,46.30
2022-11-14T18:47:06.339Z,45.00
2022-11-14T18:48:27.220Z,41.70
2022-11-14T18:49:48.917Z,36.00
2022-11-14T18:51:15.190Z,35.20
2022-11-14T18:52:36.281Z,23.50
2022-11-14T18:53:58.119Z,24.10
2022-11-14T18:55:18.415Z,24.50
2022-11-14T18:56:39.893Z,22.00
2022-11-14T18:58:00.221Z,22.90
2022-11-14T18:59:21.169Z,24.10
2022-11-14T19:00:42.867Z,23.50
2022-11-14T19:02:04.696Z,16.50
2022-11-14T19:03:25.458Z,19.30
2022-11-14T19:04:45.904Z,24.30
2022-11-14T19:06:09.891Z,20.20
2022-11-14T19:07:30.780Z,22.00
2022-11-14T19:08:59.984Z,22.40
2022-11-14T19:10:21.094Z,26.40
2022-11-14T19:11:43.846Z,20.70
2022-11-14T19:13:03.912Z,32.40
2022-11-14T19:14:24.607Z,25.40
2022-11-14T19:15:44.897Z,25.60
2022-11-14T19:17:05.883Z,29.60
2022-11-14T19:18:26.057Z,31.30
2022-11-14T19:19:48.881Z,28.60
2022-11-14T19:21:09.892Z,31.90
2022-11-14T19:22:30.604Z,30.40
2022-11-14T19:23:52.036Z,29.40
2022-11-14T19:25:12.064Z,33.60
2022-11-14T19:26:33.435Z,45.00
2022-11-14T19:27:53.851Z,39.40
2022-11-14T19:29:14.775Z,48.00
2022-11-14T19:30:35.314Z,52.40
2022-11-14T19:31:55.807Z,56.00
2022-11-14T19:33:17.286Z,48.80
2022-11-14T19:34:38.368Z,48.60
2022-11-14T19:36:05.156Z,47.70
2022-11-14T19:37:26.750Z,43.60
2022-11-14T19:38:47.650Z,44.10
2022-11-14T19:40:13.813Z,38.50
2022-11-14T19:41:34.602Z,42.40
2022-11-14T19:42:55.633Z,29.00
2022-11-14T19:44:16.761Z,35.40
2022-11-14T19:45:37.760Z,31.60
2022-11-14T19:47:01.513Z,27.30
2022-11-14T19:48:22.812Z,18.70
2022-11-14T19:49:43.207Z,21.70
2022-11-14T19:51:06.693Z,23.10
2022-11-14T19:52:26.888Z,14.10
2022-11-14T19:53:48.336Z,14.70
2022-11-14T19:55:08.681Z,13.10
2022-11-14T19:56:29.719Z,11.80
2022-11-14T19:57:50.271Z,14.10
2022-11-14T19:59:14.924Z,12.30
2022-11-14T20:00:35.659Z,17.50
2022-11-14T20:01:57.583Z,15.20
2022-11-14T20:03:19.000Z,13.60
2022-11-14T20:04:42.861Z,24.80
2022-11-14T20:06:06.417Z,20.40
2022-11-14T20:07:26.892Z,22.20
2022-11-14T20:09:59.471Z,17.50
2022-11-14T20:11:20.842Z,15.00
2022-11-14T20:12:41.472Z,14.50
2022-11-14T20:14:02.337Z,14.60
2022-11-14T20:15:23.676Z,13.60
2022-11-14T20:16:44.584Z,13.30
2022-11-14T20:18:06.033Z,14.10
2022-11-14T20:19:27.850Z,14.90
2022-11-14T20:20:48.528Z,17.20
2022-11-14T20:22:09.124Z,12.90
2022-11-14T20:23:30.022Z,14.60
2022-11-14T20:24:50.734Z,20.00
2022-11-14T20:26:14.777Z,16.40
2022-11-14T20:27:35.538Z,20.10
2022-11-14T20:28:58.625Z,18.80
2022-11-14T20:30:18.967Z,18.90
2022-11-14T20:31:39.601Z,18.10
2022-11-14T20:33:00.823Z,16.40
2022-11-14T20:34:22.220Z,20.90
2022-11-14T20:35:43.508Z,19.10
2022-11-14T20:37:11.066Z,18.80
2022-11-14T20:38:28.671Z,20.60
2022-11-14T20:39:49.083Z,18.90
2022-11-14T20:41:11.373Z,18.90
2022-11-14T20:42:31.767Z,20.80
2022-11-14T20:43:52.334Z,19.70
2022-11-14T20:45:12.866Z,21.50
2022-11-14T20:46:34.600Z,20.60
2022-11-14T20:47:55.051Z,21.60
2022-11-14T20:49:15.701Z,18.50
2022-11-14T20:50:37.279Z,22.10
2022-11-14T20:51:58.371Z,17.50
2022-11-14T20:53:19.315Z,23.60
2022-11-14T20:54:39.626Z,23.70
2022-11-14T20:56:00.426Z,19.40
2022-11-14T20:57:21.307Z,19.80
2022-11-14T20:58:43.801Z,19.20
2022-11-14T21:00:06.531Z,21.00
2022-11-14T21:01:27.395Z,20.10
2022-11-14T21:02:48.021Z,20.30
2022-11-14T21:04:09.304Z,15.70
2022-11-14T21:05:30.508Z,17.40
2022-11-14T21:06:51.073Z,20.70
2022-11-14T21:08:12.705Z,14.10
2022-11-14T21:09:33.794Z,13.40
2022-11-14T21:11:00.468Z,18.50
2022-11-14T21:12:22.154Z,17.40
2022-11-14T21:13:43.887Z,20.60
2022-11-14T21:15:05.994Z,17.20
2022-11-14T21:16:32.393Z,15.90
2022-11-14T21:17:53.059Z,21.20
2022-11-14T21:19:13.486Z,20.30
2022-11-14T21:20:34.201Z,24.80
2022-11-14T21:21:54.683Z,19.90
2022-11-14T21:23:15.996Z,19.90
2022-11-14T21:24:39.664Z,19.50
2022-11-14T21:26:08.054Z,22.50
2022-11-14T21:27:28.899Z,18.10
2022-11-14T21:28:53.202Z,19.20
2022-11-14T21:30:15.192Z,19.00
2022-11-14T21:31:38.335Z,20.00
2022-11-14T21:32:59.375Z,18.00
2022-11-14T21:34:20.475Z,19.10
2022-11-14T21:35:40.898Z,17.30
2022-11-14T21:37:01.333Z,16.80
2022-11-14T21:38:21.906Z,13.90
2022-11-14T21:39:42.397Z,14.30
2022-11-14T21:41:02.982Z,14.70
2022-11-14T21:42:24.071Z,17.90
2022-11-14T21:43:45.432Z,15.00
2022-11-14T21:45:07.155Z,14.80
2022-11-14T21:46:27.965Z,14.80
2022-11-14T21:47:48.584Z,17.00
2022-11-14T21:49:10.238Z,18.20
2022-11-14T21:50:32.356Z,21.00
2022-11-14T21:51:52.566Z,13.50
2022-11-14T21:53:13.639Z,16.80
2022-11-14T21:54:33.968Z,17.40
2022-11-14T21:55:54.387Z,14.10
2022-11-14T21:57:15.406Z,15.00
2022-11-14T21:58:37.016Z,18.00
2022-11-14T21:59:57.469Z,15.00
2022-11-14T22:01:20.914Z,17.00
2022-11-14T22:02:41.823Z,16.10
2022-11-14T22:04:03.422Z,26.20
2022-11-14T22:05:23.798Z,21.60
2022-11-14T22:06:44.482Z,19.30
2022-11-14T22:08:05.306Z,20.70
2022-11-14T22:09:27.874Z,26.70
2022-11-14T22:10:48.723Z,21.60
2022-11-14T22:12:08.718Z,40.20
2022-11-14T22:13:30.634Z,30.20
2022-11-14T22:14:51.302Z,42.30
2022-11-14T22:16:12.631Z,32.90
2022-11-14T22:17:32.741Z,36.50
2022-11-14T22:18:54.354Z,24.20
2022-11-14T22:20:16.328Z,25.50
2022-11-14T22:21:37.311Z,25.60
2022-11-14T22:22:58.233Z,22.10
2022-11-14T22:24:18.292Z,21.20
2022-11-14T22:25:38.904Z,18.40
2022-11-14T22:26:59.612Z,14.70
2022-11-14T22:28:19.979Z,18.80
2022-11-14T22:29:41.499Z,16.00
2022-11-14T22:31:13.701Z,18.80
2022-11-14T22:32:33.924Z,17.00
2022-11-14T22:33:59.245Z,17.80
2022-11-14T22:35:19.594Z,16.00
2022-11-14T22:36:40.724Z,19.90
2022-11-14T22:38:01.255Z,13.90
2022-11-14T22:39:21.921Z,17.80
2022-11-14T22:40:42.396Z,23.00
2022-11-14T22:42:02.923Z,18.50
2022-11-14T22:43:23.736Z,13.90
2022-11-14T22:44:44.204Z,17.20
2022-11-14T22:46:05.502Z,15.80
2022-11-14T22:47:25.817Z,17.80
2022-11-14T22:48:47.797Z,19.40
2022-11-14T22:50:10.028Z,13.10
2022-11-14T22:51:30.319Z,16.40
2022-11-14T22:52:50.638Z,16.70
2022-11-14T22:54:11.263Z,17.30
2022-11-14T22:55:31.727Z,16.40
2022-11-14T22:56:52.202Z,14.20
2022-11-14T22:58:13.777Z,9.10
2022-11-14T22:59:34.136Z,15.60
2022-11-14T23:00:54.465Z,13.40
2022-11-14T23:02:15.238Z,14.00
2022-11-14T23:03:36.136Z,16.80
2022-11-14T23:04:56.773Z,11.70
2022-11-14T23:06:18.797Z,16.30
2022-11-14T23:07:41.021Z,14.70
2022-11-14T23:09:02.393Z,16.60
2022-11-14T23:10:23.025Z,18.50
2022-11-14T23:11:43.400Z,18.10
2022-11-14T23:13:03.956Z,18.60
2022-11-14T23:14:25.037Z,20.70
2022-11-14T23:15:46.908Z,15.30
2022-11-14T23:17:07.133Z,12.10
2022-11-14T23:18:27.661Z,12.70
2022-11-14T23:19:48.200Z,15.10
2022-11-14T23:21:12.283Z,14.40
2022-11-14T23:22:33.155Z,15.40
2022-11-14T23:23:59.263Z,14.70
2022-11-14T23:25:19.452Z,14.50
2022-11-14T23:26:39.886Z,13.40
2022-11-14T23:28:00.507Z,15.20
2022-11-14T23:29:21.937Z,17.10
2022-11-14T23:30:42.608Z,15.90
2022-11-14T23:32:03.092Z,18.70
2022-11-14T23:33:23.734Z,14.10
2022-11-14T23:34:43.731Z,14.40
2022-11-14T23:36:05.027Z,20.00
2022-11-14T23:37:25.309Z,16.30
2022-11-14T23:38:46.106Z,14.30
2022-11-14T23:40:07.515Z,17.10
2022-11-14T23:41:27.851Z,17.10
2022-11-14T23:42:48.059Z,17.20
2022-11-14T23:44:08.791Z,14.60
2022-11-14T23:45:29.760Z,17.90
2022-11-14T23:46:50.356Z,16.80
2022-11-14T23:48:10.363Z,13.20
2022-11-14T23:49:30.835Z,18.60
2022-11-14T23:50:54.334Z,19.40
2022-11-14T23:52:14.822Z,17.10
2022-11-14T23:53:35.097Z,16.90
2022-11-14T23:54:56.091Z,17.20
2022-11-14T23:56:17.209Z,17.70
2022-11-14T23:57:37.665Z,17.00
2022-11-14T23:58:58.423Z,19.10
